Time;durP1;ratioP1;P1;durP2;ratioP2;P2;SDS_P1;SDS_P2;PMS_P1;PMS_P2;Temp;Humidity;BMP_temperature;BMP_pressure;BME280_temperature;BME280_humidity;BME280_pressure;Samples;Min_cycle;Max_cycle;Signal;HPM_P1;HPM_P2
2023/06/18 00:04:07;;;;;;;2.83;2.43;;;;;;;20.56;52.55;96447.59;10337210;28;20038;-31
2023/06/18 00:09:07;;;;;;;2.77;2.40;;;;;;;20.53;52.41;96448.47;10379828;28;20041;-31
2023/06/18 00:14:08;;;;;;;2.93;2.70;;;;;;;20.52;52.54;96441.72;10361593;28;20038;-31
2023/06/18 00:19:08;;;;;;;2.70;2.50;;;;;;;20.72;52.54;96449.09;10361931;28;20038;-32
2023/06/18 00:24:08;;;;;;;3.10;2.53;;;;;;;20.80;52.53;96442.22;10360389;28;20666;-31
2023/06/18 00:29:10;;;;;;;2.90;2.70;;;;;;;20.68;51.97;96440.66;10357912;28;20081;-30
2023/06/18 00:34:14;;;;;;;3.15;2.85;;;;;;;20.59;51.52;96438.25;10336302;28;20671;-31
2023/06/18 00:39:15;;;;;;;4.10;2.92;;;;;;;20.57;51.93;96452.66;10355970;28;20037;-31
2023/06/18 00:44:15;;;;;;;3.30;3.00;;;;;;;20.54;52.03;96439.97;10344857;28;20414;-31
2023/06/18 00:49:18;;;;;;;3.20;2.90;;;;;;;20.52;51.96;96445.94;10339517;28;20405;-31
2023/06/18 00:54:19;;;;;;;3.70;3.20;;;;;;;20.50;52.06;96447.66;10352273;28;20069;-30
2023/06/18 00:59:22;;;;;;;3.75;3.45;;;;;;;20.51;52.12;96445.13;10358547;28;20117;-31
2023/06/18 01:04:26;;;;;;;3.45;3.15;;;;;;;20.50;52.06;96446.00;10341982;28;20088;-30
2023/06/18 01:09:28;;;;;;;3.10;2.80;;;;;;;20.65;52.43;96447.50;10356299;28;20117;-31
2023/06/18 01:14:30;;;;;;;3.47;3.05;;;;;;;20.80;52.10;96442.22;10345864;28;20034;-30
2023/06/18 01:19:55;;;;;;;3.42;3.13;;;;;;;20.74;51.93;96444.81;10356274;28;20120;-31
2023/06/18 01:24:58;;;;;;;3.67;3.00;;;;;;;20.60;51.74;96437.38;10370284;28;20022;-30
2023/06/18 01:30:01;;;;;;;3.70;3.40;;;;;;;20.56;52.09;96430.63;10348267;28;20052;-30
2023/06/18 01:35:03;;;;;;;3.17;2.88;;;;;;;20.53;52.06;96433.22;10389291;28;20048;-30
2023/06/18 01:40:13;;;;;;;3.30;3.00;;;;;;;20.51;51.86;96432.41;10376891;28;20030;-30
2023/06/18 01:45:21;;;;;;;3.35;3.05;;;;;;;20.52;51.87;96423.06;10373191;28;20157;-31
2023/06/18 01:50:25;;;;;;;3.30;3.00;;;;;;;20.51;51.95;96419.69;10354668;28;20038;-30
2023/06/18 01:55:28;;;;;;;3.80;3.50;;;;;;;20.52;51.85;96421.38;10372651;28;20129;-30
2023/06/18 02:00:28;;;;;;;3.80;3.50;;;;;;;20.52;52.24;96423.91;10338076;28;20037;-31
2023/06/18 02:05:30;;;;;;;3.10;2.80;;;;;;;20.75;52.19;96432.09;10336549;28;20033;-32
2023/06/18 02:10:30;;;;;;;3.28;2.97;;;;;;;20.75;52.05;96424.47;10354270;28;20401;-31
2023/06/18 02:15:30;;;;;;;4.10;3.70;;;;;;;20.64;51.47;96426.28;10352714;28;20033;-30
2023/06/18 02:20:31;;;;;;;3.67;3.27;;;;;;;20.56;51.74;96425.53;10329856;28;20121;-30
2023/06/18 02:25:35;;;;;;;3.92;3.63;;;;;;;20.52;51.66;96425.59;10347263;28;20120;-31
2023/06/18 02:30:35;;;;;;;3.53;3.22;;;;;;;20.48;51.34;96429.88;10362523;28;20564;-30
2023/06/18 02:35:37;;;;;;;4.03;3.65;;;;;;;20.47;51.70;96435.81;10360179;28;20563;-30
2023/06/18 02:40:37;;;;;;;3.57;3.27;;;;;;;20.48;51.85;96429.06;10368793;28;20033;-31
2023/06/18 02:45:38;;;;;;;3.63;3.20;;;;;;;20.44;51.90;96418.06;10362348;28;20037;-31
2023/06/18 02:50:38;;;;;;;3.50;3.20;;;;;;;20.44;51.67;96418.06;10352221;28;20305;-31
2023/06/18 02:55:41;;;;;;;3.55;3.25;;;;;;;20.66;51.95;96419.50;10363060;28;20033;-31
2023/06/18 03:00:41;;;;;;;3.35;2.97;;;;;;;20.79;51.94;96415.91;10361634;28;20033;-31
2023/06/18 03:05:42;;;;;;;3.90;3.50;;;;;;;20.66;51.58;96416.09;10374430;28;20515;-32
2023/06/18 03:10:43;;;;;;;4.30;3.60;;;;;;;20.57;51.52;96417.03;10328482;28;20038;-32
2023/06/18 03:15:43;;;;;;;4.13;3.70;;;;;;;20.52;51.70;96415.44;10338742;28;20104;-30
2023/06/18 03:20:44;;;;;;;3.95;3.63;;;;;;;20.49;51.72;96421.41;10368918;28;20041;-31
2023/06/18 03:25:45;;;;;;;3.90;3.60;;;;;;;20.47;51.75;96418.03;10345590;28;20053;-31
2023/06/18 03:30:51;;;;;;;3.73;3.30;;;;;;;20.47;51.52;96417.22;10367715;28;20560;-31
2023/06/18 03:35:52;;;;;;;4.10;3.70;;;;;;;20.46;51.78;96416.34;10344566;28;20296;-31
2023/06/18 03:40:53;;;;;;;4.03;3.63;;;;;;;20.45;51.49;96411.31;10352542;28;20065;-31
2023/06/18 03:45:55;;;;;;;4.35;3.95;;;;;;;20.55;51.83;96412.88;10340368;28;20465;-31
2023/06/18 03:50:55;;;;;;;4.03;3.38;;;;;;;20.73;51.49;96413.44;10365563;28;20083;-31
2023/06/18 03:55:56;;;;;;;4.50;4.10;;;;;;;20.74;51.61;96415.16;10358419;28;20029;-30
2023/06/18 04:00:56;;;;;;;4.20;3.80;;;;;;;20.60;51.34;96414.47;10343943;28;20285;-30
2023/06/18 04:05:57;;;;;;;3.72;3.42;;;;;;;20.53;50.95;96412.03;10361888;28;20293;-30
2023/06/18 04:10:58;;;;;;;3.80;3.50;;;;;;;20.49;51.31;96403.63;10342105;28;20406;-30
2023/06/18 04:15:58;;;;;;;4.13;3.83;;;;;;;20.46;51.56;96400.28;10369307;28;20026;-30
2023/06/18 04:20:59;;;;;;;5.13;4.20;;;;;;;20.46;51.52;96406.19;10346883;28;20398;-31
2023/06/18 04:26:00;;;;;;;4.20;3.50;;;;;;;20.45;51.40;96409.59;10343635;28;20633;-30
2023/06/18 04:31:01;;;;;;;4.80;4.40;;;;;;;20.44;51.50;96401.97;10334403;28;20030;-30
2023/06/18 04:36:02;;;;;;;3.92;3.63;;;;;;;20.45;51.52;96408.75;10330119;28;20223;-31
2023/06/18 04:41:03;;;;;;;3.90;3.60;;;;;;;20.65;51.62;96391.53;10356292;28;20022;-31
2023/06/18 04:46:04;;;;;;;3.63;3.28;;;;;;;20.78;51.37;96403.19;10358842;28;20506;-31
2023/06/18 04:51:06;;;;;;;4.00;3.58;;;;;;;20.64;51.43;96398.31;10357915;28;20491;-31
2023/06/18 04:56:08;;;;;;;3.65;3.35;;;;;;;20.56;51.40;96405.19;10343595;28;20033;-30
2023/06/18 05:01:12;;;;;;;4.40;4.07;;;;;;;20.48;51.55;96394.28;10365349;28;20525;-31
2023/06/18 05:06:15;;;;;;;4.15;3.75;;;;;;;20.49;51.42;96395.13;10370537;28;20040;-30
2023/06/18 05:11:15;;;;;;;3.92;3.58;;;;;;;20.46;51.46;96396.00;10344933;28;20049;-30
2023/06/18 05:16:17;;;;;;;4.40;3.78;;;;;;;20.46;51.25;96392.63;10345845;28;20034;-30
2023/06/18 05:21:18;;;;;;;3.83;3.47;;;;;;;20.45;51.37;96396.06;10351240;28;20507;-30
2023/06/18 05:26:18;;;;;;;4.00;3.60;;;;;;;20.46;51.30;96390.91;10347578;28;20044;-30
2023/06/18 05:31:19;;;;;;;4.63;4.22;;;;;;;20.56;52.00;96389.94;10348253;28;20041;-30
2023/06/18 05:36:24;;;;;;;3.67;3.38;;;;;;;20.75;51.55;96393.06;10339469;28;20100;-31
2023/06/18 05:41:26;;;;;;;4.78;3.83;;;;;;;20.76;51.34;96395.59;10362943;28;20036;-31
2023/06/18 05:46:26;;;;;;;4.30;3.90;;;;;;;20.61;51.33;96395.81;10342489;28;20423;-30
2023/06/18 05:51:27;;;;;;;4.18;3.55;;;;;;;20.55;51.40;96398.44;10364842;28;20033;-30
2023/06/18 05:56:27;;;;;;;3.72;3.42;;;;;;;20.51;51.71;96404.44;10356214;28;20034;-30
2023/06/18 06:01:28;;;;;;;5.22;4.05;;;;;;;20.51;51.63;96401.88;10351887;28;20017;-31
2023/06/18 06:06:29;;;;;;;3.53;3.22;;;;;;;20.47;51.71;96396.88;10332857;28;20031;-30
2023/06/18 06:11:32;;;;;;;4.30;3.90;;;;;;;20.47;51.62;96401.94;10359773;28;20022;-30
2023/06/18 06:16:33;;;;;;;3.60;3.30;;;;;;;20.47;51.95;96407.84;10346539;28;20034;-31
2023/06/18 06:21:33;;;;;;;3.67;3.37;;;;;;;20.51;51.82;96406.13;10330045;28;20038;-31
2023/06/18 06:26:34;;;;;;;3.30;3.00;;;;;;;20.74;52.09;96404.13;10385632;28;20357;-31
2023/06/18 06:31:34;;;;;;;3.47;3.17;;;;;;;20.84;51.46;96405.66;10346857;28;20026;-30
2023/06/18 06:36:38;;;;;;;3.63;3.22;;;;;;;20.72;51.67;96405.84;10337926;28;20030;-30
2023/06/18 06:41:38;;;;;;;3.47;3.17;;;;;;;20.60;51.72;96418.72;10352869;28;20026;-31
2023/06/18 06:46:43;;;;;;;3.65;3.35;;;;;;;20.56;51.37;96406.91;10337029;28;20034;-31
2023/06/18 06:52:02;;;;;;;4.00;3.60;;;;;;;20.51;51.78;96409.53;10377584;28;20124;-31
2023/06/18 06:57:06;;;;;;;3.60;3.30;;;;;;;20.56;51.71;96412.81;10360494;28;20025;-30
2023/06/18 07:02:06;;;;;;;3.90;3.50;;;;;;;20.54;51.69;96409.47;10359307;28;20053;-30
2023/06/18 07:07:06;;;;;;;3.60;3.17;;;;;;;20.55;52.15;96411.16;10358680;28;20171;-31
2023/06/18 07:12:07;;;;;;;3.00;2.70;;;;;;;20.51;52.08;96406.97;10350432;28;20402;-30
2023/06/18 07:17:08;;;;;;;3.50;3.20;;;;;;;20.71;52.22;96404.16;10374774;28;20030;-31
2023/06/18 07:22:08;;;;;;;3.57;3.27;;;;;;;20.87;52.58;96403.94;10361702;28;20022;-30
2023/06/18 07:27:08;;;;;;;3.20;2.90;;;;;;;20.85;51.94;96400.56;10343510;28;20038;-31
2023/06/18 07:32:09;;;;;;;3.20;2.90;;;;;;;20.72;52.09;96399.03;10344946;28;20122;-31
2023/06/18 07:37:09;;;;;;;5.23;3.30;;;;;;;20.62;52.02;96394.94;10336781;28;20030;-30
2023/06/18 07:42:10;;;;;;;3.30;3.00;;;;;;;20.58;52.13;96395.88;10356140;28;20349;-30
2023/06/18 07:47:10;;;;;;;3.93;3.17;;;;;;;20.59;52.11;96399.22;10347408;28;20405;-31
2023/06/18 07:52:10;;;;;;;2.83;2.53;;;;;;;20.57;52.17;96396.69;10352213;28;20033;-30
2023/06/18 07:57:11;;;;;;;2.93;2.73;;;;;;;20.58;52.34;96395.00;10359963;28;20389;-30
2023/06/18 08:02:11;;;;;;;2.83;2.63;;;;;;;20.57;52.46;96390.78;10363829;28;20068;-31
2023/06/18 08:07:11;;;;;;;2.70;2.50;;;;;;;20.60;53.25;96389.03;10375336;28;20118;-30
2023/06/18 08:12:12;;;;;;;2.47;2.27;;;;;;;20.81;52.92;96390.44;10362498;28;20487;-31
2023/06/18 08:17:15;;;;;;;2.80;2.60;;;;;;;20.92;52.61;96386.06;10365890;28;20040;-30
2023/06/18 08:22:17;;;;;;;2.70;2.47;;;;;;;20.77;52.35;96386.25;10351682;28;20053;-31
2023/06/18 08:27:17;;;;;;;2.50;2.30;;;;;;;20.66;52.60;96378.78;10350901;28;20031;-30
2023/06/18 08:32:17;;;;;;;3.27;2.97;;;;;;;20.64;52.60;96380.50;10359687;28;20030;-31
2023/06/18 08:37:18;;;;;;;3.00;2.80;;;;;;;20.63;52.82;96385.63;10353782;28;20113;-32
2023/06/18 08:42:22;;;;;;;3.08;2.78;;;;;;;20.61;52.53;96383.09;10363933;28;20045;-30
2023/06/18 08:47:22;;;;;;;2.55;2.35;;;;;;;20.60;52.51;96378.88;10344498;28;20071;-32
2023/06/18 08:52:25;;;;;;;2.27;2.07;;;;;;;20.61;52.79;96380.56;10338106;28;20092;-30
2023/06/18 08:57:34;;;;;;;2.40;2.20;;;;;;;20.60;52.91;96371.25;10353972;28;20657;-30
2023/06/18 09:02:35;;;;;;;2.50;2.30;;;;;;;20.79;53.14;96370.09;10351154;28;20109;-31
2023/06/18 09:07:35;;;;;;;2.28;2.05;;;;;;;20.91;53.31;96367.44;10340092;28;20034;-30
2023/06/18 09:12:36;;;;;;;2.03;1.83;;;;;;;20.87;53.27;96362.41;10355592;28;20036;-31
2023/06/18 09:17:39;;;;;;;2.50;2.00;;;;;;;20.76;52.82;96349.81;10356243;28;20106;-30
2023/06/18 09:22:48;;;;;;;2.25;2.05;;;;;;;20.65;53.06;96349.09;10365331;28;20026;-30
2023/06/18 09:27:48;;;;;;;2.45;2.25;;;;;;;20.64;52.85;96347.44;10372215;28;20034;-31
2023/06/18 09:32:49;;;;;;;2.60;2.40;;;;;;;20.63;52.89;96338.13;10382039;28;20510;-31
2023/06/18 09:37:50;;;;;;;2.10;1.95;;;;;;;20.69;53.02;96332.94;10372068;28;20033;-32
2023/06/18 09:42:52;;;;;;;1.90;1.80;;;;;;;20.74;53.76;96326.09;10373255;28;20028;-31
2023/06/18 09:47:52;;;;;;;2.10;1.90;;;;;;;20.68;53.34;96331.28;10360275;28;20034;-31
2023/06/18 09:52:52;;;;;;;1.75;1.65;;;;;;;20.83;54.78;96331.06;10348891;28;20046;-31
2023/06/18 09:57:53;;;;;;;2.17;1.98;;;;;;;20.97;53.77;96329.13;10338457;28;20030;-30
2023/06/18 10:03:03;;;;;;;1.70;1.60;;;;;;;20.95;53.78;96318.16;10363539;28;20033;-30
2023/06/18 10:08:07;;;;;;;2.30;2.10;;;;;;;20.85;54.03;96314.03;10355578;28;20938;-30
2023/06/18 10:13:11;;;;;;;1.95;1.85;;;;;;;20.81;53.38;96321.75;10347271;28;20485;-30
2023/06/18 10:18:22;;;;;;;1.90;1.80;;;;;;;20.76;53.37;96321.81;10377699;28;20117;-31
2023/06/18 10:23:24;;;;;;;1.63;1.52;;;;;;;20.71;53.38;96315.94;10351663;28;20021;-30
2023/06/18 10:28:25;;;;;;;2.65;2.35;;;;;;;20.67;53.42;96309.25;10361630;28;20038;-30
2023/06/18 10:33:26;;;;;;;1.90;1.80;;;;;;;20.64;53.54;96309.28;10359632;28;20041;-31
2023/06/18 10:38:28;;;;;;;2.38;1.90;;;;;;;20.66;53.44;96307.56;10350156;28;20072;-31
2023/06/18 10:43:28;;;;;;;2.03;1.83;;;;;;;20.78;54.60;96301.44;10363127;28;20031;-30
2023/06/18 10:48:29;;;;;;;2.05;1.85;;;;;;;20.94;53.70;96295.25;10364008;28;20432;-31
2023/06/18 10:53:30;;;;;;;1.92;1.77;;;;;;;21.00;53.12;96288.38;10373569;28;20030;-31
2023/06/18 10:58:32;;;;;;;1.90;1.63;;;;;;;20.89;54.04;96280.06;10365604;28;20038;-30
2023/06/18 11:03:35;;;;;;;1.70;1.60;;;;;;;20.76;53.24;96293.84;10340218;28;20087;-31
2023/06/18 11:08:37;;;;;;;1.92;1.83;;;;;;;20.73;53.53;96278.59;10350481;28;20041;-30
2023/06/18 11:13:39;;;;;;;1.92;1.83;;;;;;;20.71;53.39;96271.88;10353813;28;20486;-31
2023/06/18 11:18:41;;;;;;;2.20;2.00;;;;;;;20.66;53.66;96266.88;10347975;28;20062;-31
2023/06/18 11:23:42;;;;;;;1.75;1.65;;;;;;;20.72;53.51;96265.94;10353679;28;20026;-30
2023/06/18 11:28:43;;;;;;;1.95;1.85;;;;;;;20.67;53.77;96271.09;10377531;28;20559;-30
2023/06/18 11:33:49;;;;;;;2.05;1.90;;;;;;;20.77;54.47;96264.13;10386808;28;20042;-31
2023/06/18 11:38:51;;;;;;;1.90;1.70;;;;;;;20.93;54.34;96268.13;10368588;28;20099;-30
2023/06/18 11:43:53;;;;;;;2.40;2.20;;;;;;;21.01;53.61;96272.25;10359544;28;20030;-31
2023/06/18 11:48:55;;;;;;;1.90;1.77;;;;;;;20.88;53.75;96259.75;10355814;28;20028;-31
2023/06/18 11:53:56;;;;;;;2.00;1.80;;;;;;;20.77;53.43;96257.34;10361626;28;20127;-31
2023/06/18 11:58:57;;;;;;;3.58;2.10;;;;;;;20.74;53.64;96251.47;10365509;28;20116;-31
2023/06/18 12:04:08;;;;;;;3.05;2.40;;;;;;;20.71;53.80;96249.81;10358724;28;20036;-31
2023/06/18 12:09:10;;;;;;;4.50;2.13;;;;;;;20.69;53.71;96237.97;10362919;28;20041;-30
2023/06/18 12:14:28;;;;;;;8.75;2.70;;;;;;;20.68;53.94;96234.59;10370006;28;20044;-31
2023/06/18 12:19:30;;;;;;;2.65;2.20;;;;;;;20.67;54.02;96222.75;10369275;28;20084;-31
2023/06/18 12:24:31;;;;;;;3.95;1.92;;;;;;;20.68;54.47;96232.06;10366472;28;20030;-32
2023/06/18 12:29:32;;;;;;;8.15;2.40;;;;;;;20.97;56.27;96222.25;10352848;28;20049;-31
2023/06/18 12:34:35;;;;;;;3.83;2.28;;;;;;;21.07;55.12;96212.75;10346535;28;20045;-30
2023/06/18 12:39:36;;;;;;;6.13;2.30;;;;;;;20.94;55.06;96206.19;10349762;28;20231;-30
2023/06/18 12:44:38;;;;;;;4.93;2.55;;;;;;;20.85;54.39;96203.78;10338337;28;20490;-31
2023/06/18 12:49:39;;;;;;;3.42;2.13;;;;;;;20.80;54.25;96201.31;10342064;28;20037;-31
2023/06/18 12:54:40;;;;;;;2.40;2.20;;;;;;;20.71;54.23;96193.84;10350140;28;20078;-30
2023/06/18 12:59:49;;;;;;;3.70;3.13;;;;;;;20.78;54.80;96190.34;10333976;28;20063;-31
2023/06/18 13:04:50;;;;;;;5.10;2.92;;;;;;;20.72;54.34;96190.44;10364656;28;20381;-31
2023/06/18 13:09:50;;;;;;;5.85;2.30;;;;;;;20.72;54.43;96197.25;10354209;28;20030;-31
2023/06/18 13:14:51;;;;;;;5.00;2.13;;;;;;;20.73;54.34;96197.19;10349523;28;20022;-31
2023/06/18 13:19:51;;;;;;;2.33;2.10;;;;;;;20.90;54.92;96196.94;10372160;28;20831;-31
2023/06/18 13:24:53;;;;;;;2.63;1.92;;;;;;;21.07;54.74;96197.47;10347688;28;20354;-31
2023/06/18 13:29:55;;;;;;;5.10;2.88;;;;;;;20.97;54.63;96180.72;10347045;28;20041;-31
2023/06/18 13:34:55;;;;;;;2.30;2.03;;;;;;;20.86;54.23;96191.06;10341525;28;20038;-31
2023/06/18 13:39:56;;;;;;;2.25;1.98;;;;;;;20.81;54.10;96197.09;10349653;28;20045;-31
2023/06/18 13:44:58;;;;;;;5.53;2.92;;;;;;;20.86;55.98;96185.13;10335347;28;20104;-30
2023/06/18 13:49:59;;;;;;;6.38;3.08;;;;;;;20.81;54.81;96176.72;10347329;28;20050;-31
2023/06/18 13:55:00;;;;;;;9.82;3.65;;;;;;;20.76;54.91;96169.19;10343320;28;20030;-30
2023/06/18 14:00:00;;;;;;;4.13;2.50;;;;;;;20.79;54.93;96168.28;10327775;28;20037;-31
2023/06/18 14:05:00;;;;;;;3.10;2.77;;;;;;;20.75;54.37;96162.41;10356199;28;20033;-30
2023/06/18 14:10:01;;;;;;;2.77;2.50;;;;;;;20.83;55.53;96162.25;10339230;28;20466;-30
2023/06/18 14:15:01;;;;;;;3.27;2.93;;;;;;;21.02;55.29;96161.94;10338874;28;20030;-31
2023/06/18 14:20:03;;;;;;;3.35;2.47;;;;;;;21.05;54.52;96159.31;10354451;28;20292;-30
2023/06/18 14:25:04;;;;;;;3.45;3.15;;;;;;;20.92;56.77;96157.03;10362654;28;20026;-31
2023/06/18 14:30:05;;;;;;;4.50;2.95;;;;;;;20.85;54.90;96161.38;10338319;28;20116;-31
2023/06/18 14:35:06;;;;;;;4.50;2.58;;;;;;;20.85;55.25;96165.63;10345790;28;20034;-31
2023/06/18 14:40:07;;;;;;;3.97;3.38;;;;;;;20.86;55.23;96178.34;10369496;28;20498;-31
2023/06/18 14:45:08;;;;;;;8.02;3.33;;;;;;;20.86;55.56;96173.25;10345679;28;20030;-31
2023/06/18 14:50:10;;;;;;;3.53;2.47;;;;;;;20.97;55.66;96178.97;10338818;28;20449;-30
2023/06/18 14:55:11;;;;;;;5.03;3.00;;;;;;;21.12;55.89;96181.25;10353664;28;20133;-32
2023/06/18 15:00:11;;;;;;;5.20;2.50;;;;;;;21.04;55.55;96184.81;10336707;28;20092;-31
2023/06/18 15:05:12;;;;;;;5.47;3.13;;;;;;;20.94;55.05;96171.41;10343568;28;20114;-31
2023/06/18 15:10:12;;;;;;;6.18;2.90;;;;;;;20.88;54.59;96173.25;10329038;28;20034;-30
2023/06/18 15:15:14;;;;;;;3.80;2.87;;;;;;;20.82;54.77;96169.03;10336049;28;20506;-31
2023/06/18 15:20:14;;;;;;;4.13;3.72;;;;;;;20.77;54.96;96170.00;10352970;28;20297;-31
2023/06/18 15:25:14;;;;;;;3.57;2.97;;;;;;;20.77;54.92;96167.44;10358327;28;20048;-31
2023/06/18 15:30:15;;;;;;;4.65;3.40;;;;;;;20.79;55.41;96175.94;10341565;28;20038;-30
2023/06/18 15:35:15;;;;;;;4.47;3.08;;;;;;;20.77;55.00;96168.31;10354362;28;20052;-30
2023/06/18 15:40:16;;;;;;;5.53;2.53;;;;;;;20.96;55.83;96171.41;10352569;28;20037;-30
2023/06/18 15:45:16;;;;;;;6.47;2.85;;;;;;;21.09;55.23;96167.75;10349959;28;20728;-30
2023/06/18 15:50:16;;;;;;;3.43;3.03;;;;;;;21.00;55.29;96173.84;10363762;28;20061;-31
2023/06/18 15:55:17;;;;;;;3.07;2.50;;;;;;;20.90;55.05;96172.31;10375791;28;20046;-31
2023/06/18 16:00:17;;;;;;;7.63;3.03;;;;;;;20.88;55.37;96165.63;10364592;28;20034;-31
2023/06/18 16:05:18;;;;;;;5.38;3.75;;;;;;;20.87;55.60;96164.75;10340369;28;20769;-30
2023/06/18 16:10:18;;;;;;;9.30;3.10;;;;;;;20.91;55.60;96163.00;10359783;28;20096;-31
2023/06/18 16:15:18;;;;;;;7.37;3.37;;;;;;;20.91;55.45;96175.72;10378661;28;20127;-31
2023/06/18 16:20:19;;;;;;;8.00;4.10;;;;;;;20.94;56.05;96180.75;10382546;28;20042;-30
2023/06/18 16:25:19;;;;;;;4.72;4.22;;;;;;;20.87;54.75;96180.03;10375896;28;20053;-31
2023/06/18 16:30:20;;;;;;;5.83;2.90;;;;;;;21.04;54.98;96198.38;10375154;28;20041;-30
2023/06/18 16:35:21;;;;;;;6.07;2.97;;;;;;;21.13;55.29;96188.03;10376283;28;20034;-31
2023/06/18 16:40:23;;;;;;;6.15;3.90;;;;;;;21.05;56.17;96206.88;10369343;28;20077;-31
2023/06/18 16:45:23;;;;;;;4.95;3.95;;;;;;;21.03;56.79;96237.41;10366675;28;20030;-31
2023/06/18 16:50:25;;;;;;;7.83;4.53;;;;;;;21.03;57.65;96239.97;10359961;28;20041;-31
2023/06/18 16:55:25;;;;;;;8.88;4.55;;;;;;;21.11;58.74;96260.19;10380917;28;20041;-30
2023/06/18 17:00:25;;;;;;;6.97;5.03;;;;;;;21.06;58.21;96262.00;10373651;28;20490;-31
2023/06/18 17:05:26;;;;;;;4.77;3.70;;;;;;;21.09;56.03;96272.09;10381792;28;20071;-30
2023/06/18 17:10:26;;;;;;;6.05;3.38;;;;;;;21.21;55.61;96271.91;10372722;28;20470;-31
2023/06/18 17:15:27;;;;;;;3.57;3.17;;;;;;;21.11;55.50;96268.69;10352293;28;20523;-31
2023/06/18 17:20:27;;;;;;;6.87;3.37;;;;;;;21.00;55.70;96267.19;10368632;28;20284;-31
2023/06/18 17:25:27;;;;;;;3.83;3.23;;;;;;;20.90;54.71;96261.38;10355973;28;20052;-30
2023/06/18 17:30:28;;;;;;;3.27;2.90;;;;;;;20.87;54.74;96251.28;10370412;28;20070;-30
2023/06/18 17:35:28;;;;;;;3.03;2.80;;;;;;;20.86;54.90;96248.75;10367847;28;20061;-31
2023/06/18 17:40:28;;;;;;;4.67;3.17;;;;;;;20.83;54.86;96247.09;10384829;28;20401;-31
2023/06/18 17:45:29;;;;;;;3.80;2.83;;;;;;;20.81;54.93;96241.16;10380527;28;20038;-30
2023/06/18 17:50:29;;;;;;;6.32;3.50;;;;;;;20.97;55.60;96250.25;10377024;28;20284;-30
2023/06/18 17:55:31;;;;;;;4.73;3.40;;;;;;;21.13;55.52;96231.28;10342395;28;20042;-31
2023/06/18 18:00:31;;;;;;;3.95;2.60;;;;;;;21.05;54.74;96220.41;10379018;28;20037;-31
2023/06/18 18:05:32;;;;;;;4.07;2.47;;;;;;;20.94;54.56;96217.22;10359677;28;20045;-31
2023/06/18 18:10:32;;;;;;;5.27;3.07;;;;;;;20.91;55.09;96218.97;10363042;28;20080;-31
2023/06/18 18:15:32;;;;;;;3.87;2.93;;;;;;;20.85;54.72;96225.00;10363464;28;20030;-30
2023/06/18 18:20:33;;;;;;;10.20;3.42;;;;;;;20.83;54.69;96223.31;10350239;28;20283;-30
2023/06/18 18:25:33;;;;;;;3.67;3.30;;;;;;;20.84;55.16;96225.84;10357533;28;20049;-30
2023/06/18 18:30:34;;;;;;;5.67;2.90;;;;;;;20.82;55.03;96232.66;10369182;28;20289;-31
2023/06/18 18:35:34;;;;;;;3.42;3.13;;;;;;;21.03;56.03;96219.59;10364840;28;20945;-30
2023/06/18 18:40:35;;;;;;;5.03;3.47;;;;;;;21.18;55.36;96219.34;10381173;28;20080;-31
2023/06/18 18:45:35;;;;;;;3.07;2.70;;;;;;;21.09;55.19;96226.28;10392675;28;20034;-30
2023/06/18 18:50:35;;;;;;;5.97;3.10;;;;;;;20.93;54.70;96235.91;10373553;28;20041;-31
2023/06/18 18:55:36;;;;;;;3.77;2.57;;;;;;;20.91;55.16;96239.34;10376696;28;20497;-31
2023/06/18 19:00:38;;;;;;;3.65;2.78;;;;;;;20.86;54.91;96238.56;10348021;28;20083;-31
2023/06/18 19:05:39;;;;;;;4.97;3.40;;;;;;;20.84;55.30;96246.22;10341533;28;20036;-30
2023/06/18 19:10:39;;;;;;;4.20;3.72;;;;;;;20.82;55.07;96247.91;10347286;28;20395;-33
2023/06/18 19:15:40;;;;;;;3.20;2.67;;;;;;;20.83;55.07;96242.00;10354322;28;20402;-31
2023/06/18 19:20:40;;;;;;;9.23;3.47;;;;;;;20.88;56.23;96244.50;10355102;28;20034;-31
2023/06/18 19:25:40;;;;;;;5.90;3.07;;;;;;;21.09;57.70;96256.84;10338410;28;20030;-32
2023/06/18 19:30:41;;;;;;;4.43;3.17;;;;;;;21.17;56.03;96258.41;10333052;28;20129;-30
2023/06/18 19:35:43;;;;;;;4.20;2.67;;;;;;;21.06;54.48;96267.06;10347201;28;20026;-31
2023/06/18 19:40:44;;;;;;;3.45;2.78;;;;;;;21.01;55.02;96264.63;10349728;28;20405;-30
2023/06/18 19:45:44;;;;;;;3.87;2.47;;;;;;;20.97;54.91;96268.06;10337477;28;20030;-30
2023/06/18 19:50:44;;;;;;;3.57;1.97;;;;;;;20.97;54.89;96280.78;10342880;28;20426;-31
2023/06/18 19:55:45;;;;;;;4.47;2.70;;;;;;;20.95;55.12;96282.53;10341728;28;20038;-31
2023/06/18 20:00:47;;;;;;;2.80;2.60;;;;;;;20.94;54.73;96283.41;10340112;28;20076;-31
2023/06/18 20:05:48;;;;;;;2.95;2.60;;;;;;;20.93;54.99;96284.25;10339975;28;20372;-31
2023/06/18 20:10:51;;;;;;;4.57;3.08;;;;;;;21.13;56.02;96292.38;10342692;28;20100;-31
2023/06/18 20:15:51;;;;;;;5.75;2.97;;;;;;;21.21;55.58;96305.84;10337408;28;20037;-31
2023/06/18 20:20:54;;;;;;;3.93;2.80;;;;;;;21.08;54.63;96312.00;10326977;28;20042;-31
2023/06/18 20:25:57;;;;;;;2.88;2.60;;;;;;;21.01;54.69;96310.44;10325468;28;20034;-31
2023/06/18 20:30:57;;;;;;;3.80;2.60;;;;;;;20.94;54.71;96300.34;10334157;28;20030;-31
2023/06/18 20:35:57;;;;;;;2.97;2.23;;;;;;;20.95;55.09;96299.47;10336014;28;20418;-31
2023/06/18 20:40:58;;;;;;;4.63;2.70;;;;;;;20.91;54.94;96298.72;10351105;28;20045;-31
2023/06/18 20:45:58;;;;;;;4.53;2.73;;;;;;;20.90;54.83;96302.09;10354205;28;20490;-31
2023/06/18 20:51:06;;;;;;;2.30;2.03;;;;;;;20.88;54.93;96295.38;10341916;28;20387;-30
2023/06/18 20:56:08;;;;;;;6.85;3.65;;;;;;;20.99;56.00;96307.03;10341287;28;20494;-31
2023/06/18 21:01:08;;;;;;;2.45;2.25;;;;;;;21.17;55.87;96311.84;10346461;28;20038;-31
2023/06/18 21:06:11;;;;;;;2.70;2.50;;;;;;;21.18;55.41;96312.69;10329989;28;20062;-31
2023/06/18 21:11:11;;;;;;;2.28;2.08;;;;;;;21.02;54.59;96314.66;10343306;28;20038;-30
2023/06/18 21:16:12;;;;;;;2.60;2.40;;;;;;;20.95;54.82;96315.59;10316786;28;20061;-32
2023/06/18 21:21:13;;;;;;;2.60;2.38;;;;;;;20.93;55.04;96322.44;10341933;28;20202;-30
2023/06/18 21:26:13;;;;;;;3.27;2.73;;;;;;;20.92;54.87;96318.22;10341303;28;20428;-31
2023/06/18 21:31:13;;;;;;;2.70;2.50;;;;;;;20.90;55.02;96330.09;10341242;28;20104;-30
2023/06/18 21:36:14;;;;;;;3.83;2.60;;;;;;;20.89;54.80;96328.41;10343621;28;20046;-31
2023/06/18 21:41:14;;;;;;;3.22;2.58;;;;;;;20.89;55.05;96330.97;10334127;28;20038;-31
2023/06/18 21:46:15;;;;;;;3.10;2.60;;;;;;;21.04;56.07;96330.72;10340942;28;20034;-31
2023/06/18 21:51:15;;;;;;;4.50;2.72;;;;;;;21.22;56.06;96329.59;10340621;28;20041;-31
2023/06/18 21:56:15;;;;;;;3.77;2.50;;;;;;;21.16;55.51;96322.91;10339832;28;20046;-32
2023/06/18 22:01:16;;;;;;;2.60;2.40;;;;;;;21.02;54.84;96322.28;10332205;28;20034;-31
2023/06/18 22:06:16;;;;;;;3.78;2.33;;;;;;;20.96;54.84;96317.28;10339567;28;20042;-31
2023/06/18 22:11:18;;;;;;;3.90;2.70;;;;;;;20.93;55.21;96312.25;10339837;28;20418;-30
2023/06/18 22:16:18;;;;;;;2.80;2.35;;;;;;;20.90;55.24;96311.47;10339071;28;20058;-31
2023/06/18 22:21:23;;;;;;;2.40;2.20;;;;;;;20.90;55.04;96317.38;10332108;28;20058;-30
2023/06/18 22:26:23;;;;;;;2.40;2.20;;;;;;;20.90;55.06;96316.56;10336297;28;20038;-31
2023/06/18 22:31:24;;;;;;;2.10;2.00;;;;;;;20.89;55.02;96328.41;10345860;28;20105;-30
2023/06/18 22:36:24;;;;;;;2.80;2.60;;;;;;;21.09;55.76;96326.41;10346312;28;20037;-31
2023/06/18 22:41:24;;;;;;;2.63;2.20;;;;;;;21.23;55.49;96332.09;10339080;28;20045;-32
2023/06/18 22:46:25;;;;;;;3.10;2.00;;;;;;;21.14;55.48;96332.25;10330554;28;20407;-31
2023/06/18 22:51:26;;;;;;;2.30;2.10;;;;;;;21.02;54.89;96335.00;10330187;28;20042;-31
2023/06/18 22:56:28;;;;;;;2.38;1.95;;;;;;;20.96;55.04;96331.72;10337683;28;20041;-31
2023/06/18 23:01:28;;;;;;;2.92;2.15;;;;;;;20.92;54.79;96341.13;10330516;28;20088;-31
2023/06/18 23:06:29;;;;;;;2.42;2.22;;;;;;;20.90;54.85;96350.47;10337664;28;20515;-30
2023/06/18 23:11:29;;;;;;;2.17;1.97;;;;;;;20.90;54.88;96344.53;10353269;28;20038;-31
2023/06/18 23:16:29;;;;;;;2.43;2.23;;;;;;;20.89;55.09;96360.69;10328935;28;20045;-31
2023/06/18 23:21:30;;;;;;;3.07;2.40;;;;;;;20.90;55.44;96359.81;10333170;28;20107;-31